Burrville, Tennessee
Current Conditions -  °F | °C
As of 3:53 PM on Monday 24 Nov 2014 (Local Time) from KCSV Reporting Station
Clear Clear  
Wind Chill: 59°   Ceiling: Unl
Heat Index: 59°   Visibility: 10mi
Dew Point: 41°   Wind: 14mph
Humidity: 51%   Direction: 260°W
Pressure: 29.81"   Gusts: 23mph
Location:  36.273°N, 84.7037°W
Report Text: KCSV 242053Z AUTO 26012G20KT 10SM CLR 15/05 A2981 RMK AO2 SLP084 T01500050 53021
Loading
Personal Weather Stations






























Interactive Weather Map New forecast layout! Learn more

10-Day Weather Forecast

Advertisements
Track Severe Weather on mobile